Time;durP1;ratioP1;P1;durP2;ratioP2;P2;SDS_P1;SDS_P2;PMS_P1;PMS_P2;Temp;Humidity;BMP_temperature;BMP_pressure;BME280_temperature;BME280_humidity;BME280_pressure;Samples;Min_cycle;Max_cycle;Signal;HPM_P1;HPM_P2
2023/08/18 00:02:20;;;;;;;10.80;8.82;;;;;;;18.97;95.25;101670.66;5054690;28;20478;-60
2023/08/18 00:04:46;;;;;;;10.50;8.40;;;;;;;18.97;95.22;101667.97;5054906;28;20059;-63
2023/08/18 00:07:11;;;;;;;12.32;8.43;;;;;;;18.98;95.07;101666.19;5054842;28;20029;-60
2023/08/18 00:09:36;;;;;;;12.27;8.30;;;;;;;18.98;94.66;101666.19;5054842;28;20036;-60
2023/08/18 00:12:02;;;;;;;12.48;8.73;;;;;;;18.94;94.72;101670.69;5054614;28;20443;-60
2023/08/18 00:14:27;;;;;;;12.10;8.57;;;;;;;18.94;95.11;101668.00;5054992;28;20044;-59
2023/08/18 00:16:53;;;;;;;13.60;8.68;;;;;;;18.96;94.98;101676.91;5054457;28;20556;-59
2023/08/18 00:19:18;;;;;;;11.43;8.57;;;;;;;18.94;95.04;101668.00;5054674;28;20039;-60
2023/08/18 00:21:44;;;;;;;10.80;8.10;;;;;;;18.94;94.69;101676.03;5054460;28;20054;-60
2023/08/18 00:24:09;;;;;;;9.95;7.88;;;;;;;18.96;94.56;101666.19;5052468;28;20086;-60
2023/08/18 00:26:34;;;;;;;11.10;7.93;;;;;;;18.99;94.07;101666.16;5054392;28;20065;-60
2023/08/18 00:29:00;;;;;;;11.15;8.30;;;;;;;18.92;94.07;101659.09;5054321;28;20108;-60
2023/08/18 00:31:25;;;;;;;12.93;8.65;;;;;;;18.92;93.83;101658.19;5054529;28;20029;-60
2023/08/18 00:33:51;;;;;;;10.93;8.27;;;;;;;18.89;94.00;101655.56;5054097;28;20493;-60
2023/08/18 00:36:16;;;;;;;12.35;8.38;;;;;;;18.87;94.32;101652.00;5054228;28;20033;-60
2023/08/18 00:38:41;;;;;;;9.90;8.25;;;;;;;18.89;94.12;101653.78;5054130;28;20116;-60
2023/08/18 00:41:07;;;;;;;11.43;8.07;;;;;;;18.94;93.85;101661.75;5036240;28;20029;-60
2023/08/18 00:43:32;;;;;;;10.85;8.52;;;;;;;18.92;94.07;101656.41;5054100;28;20037;-60
2023/08/18 00:45:58;;;;;;;10.60;7.63;;;;;;;18.91;93.70;101654.63;5054073;28;20100;-60
2023/08/18 00:48:24;;;;;;;11.35;8.38;;;;;;;18.90;94.21;101663.59;5054032;28;20470;-60
2023/08/18 00:50:50;;;;;;;12.77;8.75;;;;;;;18.92;94.14;101666.22;5053909;28;20064;-60
2023/08/18 00:53:16;;;;;;;13.32;8.73;;;;;;;18.89;93.91;101661.81;5053845;28;20033;-60
2023/08/18 00:55:42;;;;;;;10.07;8.43;;;;;;;18.88;93.90;101659.13;5053873;28;20414;-60
2023/08/18 00:58:08;;;;;;;12.68;8.95;;;;;;;18.88;94.12;101651.09;5053890;28;20395;-59
2023/08/18 01:00:35;;;;;;;11.32;8.80;;;;;;;18.86;94.37;101656.47;5035835;28;20549;-60
2023/08/18 01:03:03;;;;;;;10.63;8.65;;;;;;;18.84;94.25;101652.03;5053422;28;20029;-60
2023/08/18 01:05:29;;;;;;;12.40;9.23;;;;;;;18.84;94.02;101647.56;5053540;28;20036;-59
2023/08/18 01:07:55;;;;;;;12.75;8.60;;;;;;;18.85;93.61;101644.00;5053669;28;20147;-60
2023/08/18 01:10:21;;;;;;;12.60;8.95;;;;;;;18.83;93.91;101647.59;5053689;28;20029;-59
2023/08/18 01:13:14;;;;;;;13.32;8.40;;;;;;;18.83;93.67;101648.47;5053501;28;20032;-60
2023/08/18 01:15:44;;;;;;;10.18;8.55;;;;;;;18.79;93.54;101640.50;5053460;28;21304;-59
2023/08/18 01:18:10;;;;;;;10.55;8.80;;;;;;;18.79;94.05;101646.72;5053422;28;20057;-60
2023/08/18 01:20:37;;;;;;;12.98;9.52;;;;;;;18.84;93.56;101655.59;5035591;28;20327;-59
2023/08/18 01:23:03;;;;;;;10.82;8.38;;;;;;;18.84;93.76;101655.59;5053355;28;20029;-60
2023/08/18 01:25:30;;;;;;;11.48;9.00;;;;;;;18.77;94.10;101646.75;5053227;28;20025;-60
2023/08/18 01:27:57;;;;;;;12.27;9.35;;;;;;;18.77;94.20;101643.19;5053401;28;20073;-59
2023/08/18 01:30:32;;;;;;;10.95;8.73;;;;;;;18.71;94.29;101630.78;5053185;28;20433;-60
2023/08/18 01:33:06;;;;;;;11.65;8.98;;;;;;;18.76;94.49;101631.59;5052969;28;20032;-60
2023/08/18 01:35:33;;;;;;;12.27;9.30;;;;;;;18.72;94.54;101626.28;5052908;28;20355;-60
2023/08/18 01:37:59;;;;;;;10.68;8.60;;;;;;;18.65;94.99;101627.22;5053178;28;20390;-60
2023/08/18 01:40:28;;;;;;;11.45;8.48;;;;;;;18.66;94.71;101623.63;5053207;28;20064;-60
2023/08/18 01:42:53;;;;;;;10.95;8.60;;;;;;;18.66;94.96;101623.63;5053085;28;20024;-59
2023/08/18 01:45:19;;;;;;;13.63;9.02;;;;;;;18.63;94.54;101626.31;5053096;28;20475;-60
2023/08/18 01:47:44;;;;;;;11.85;9.10;;;;;;;18.63;94.82;101624.56;5053194;28;20079;-60
2023/08/18 01:50:10;;;;;;;11.75;9.00;;;;;;;18.62;94.93;101614.72;5052850;28;20078;-60
2023/08/18 01:52:35;;;;;;;11.52;7.93;;;;;;;18.62;94.57;101609.38;5053129;28;20386;-59
2023/08/18 01:55:01;;;;;;;9.93;8.45;;;;;;;18.55;94.69;101615.72;5052911;28;20448;-60
2023/08/18 01:57:26;;;;;;;10.35;8.45;;;;;;;18.56;94.84;101622.84;5053144;28;20029;-59
2023/08/18 01:59:52;;;;;;;10.82;8.80;;;;;;;18.61;94.66;101618.31;5035098;28;20091;-60
2023/08/18 02:02:17;;;;;;;11.10;8.55;;;;;;;18.60;94.54;101607.66;5052650;28;20033;-60
2023/08/18 02:04:43;;;;;;;11.77;8.68;;;;;;;18.56;95.00;101611.25;5052772;28;20104;-60
2023/08/18 02:07:08;;;;;;;11.07;8.98;;;;;;;18.48;94.87;101604.19;5052894;28;20529;-60
2023/08/18 02:09:34;;;;;;;10.43;8.73;;;;;;;18.53;95.22;101612.16;5052998;28;20040;-60
2023/08/18 02:11:59;;;;;;;11.57;8.80;;;;;;;18.47;94.89;101602.41;5035070;28;20040;-59
2023/08/18 02:14:24;;;;;;;10.38;9.10;;;;;;;18.45;94.88;101611.34;5052696;28;20048;-60
2023/08/18 02:16:50;;;;;;;10.32;8.43;;;;;;;18.39;94.94;101609.63;5052422;28;20048;-60
2023/08/18 02:19:15;;;;;;;11.23;9.02;;;;;;;18.35;95.29;101615.00;5051409;28;20043;-60
2023/08/18 02:21:41;;;;;;;11.45;9.18;;;;;;;18.33;95.91;101608.78;5052895;28;20108;-59
2023/08/18 02:24:06;;;;;;;12.23;9.00;;;;;;;18.30;96.01;101600.78;5052559;28;20487;-60
2023/08/18 02:26:31;;;;;;;12.57;9.00;;;;;;;18.26;95.89;101602.59;5052592;28;20025;-60
2023/08/18 02:28:57;;;;;;;12.23;9.07;;;;;;;18.27;95.73;101594.56;5052598;28;20490;-60
2023/08/18 02:31:22;;;;;;;11.70;9.35;;;;;;;18.26;95.62;101602.59;5053002;28;20057;-60
2023/08/18 02:33:48;;;;;;;10.57;9.23;;;;;;;18.29;95.84;101601.72;5052500;28;20352;-59
2023/08/18 02:36:13;;;;;;;11.13;9.30;;;;;;;18.29;95.93;101593.69;5052684;28;20490;-59
2023/08/18 02:38:39;;;;;;;12.07;9.80;;;;;;;18.31;95.59;101594.53;5034743;28;20372;-60
2023/08/18 02:41:04;;;;;;;10.77;9.18;;;;;;;18.30;95.58;101603.47;5052451;28;20036;-60
2023/08/18 02:43:30;;;;;;;12.43;9.80;;;;;;;18.25;95.55;101603.53;5052522;28;20021;-60
2023/08/18 02:46:00;;;;;;;12.63;9.48;;;;;;;18.21;95.81;101610.69;5052427;28;20096;-61
2023/08/18 02:48:27;;;;;;;13.63;9.25;;;;;;;18.20;96.37;101599.97;5055055;28;20467;-59
2023/08/18 02:51:07;;;;;;;12.23;9.38;;;;;;;18.21;95.94;101591.94;5056193;28;20035;-60
2023/08/18 02:53:33;;;;;;;11.32;9.85;;;;;;;18.20;96.16;101597.28;5056120;28;20036;-59
2023/08/18 02:55:59;;;;;;;12.25;9.48;;;;;;;18.17;95.91;101600.03;5056180;28;20040;-59
2023/08/18 02:58:29;;;;;;;13.05;10.05;;;;;;;18.09;96.63;101601.88;5056202;28;20024;-60
2023/08/18 03:01:05;;;;;;;12.80;9.90;;;;;;;18.04;97.06;101603.69;5055995;28;20025;-60
2023/08/18 03:03:30;;;;;;;12.95;9.57;;;;;;;18.04;97.27;101603.69;5055935;28;20029;-60
2023/08/18 03:06:04;;;;;;;12.63;9.52;;;;;;;18.07;97.06;101596.50;5056023;28;20440;-59
2023/08/18 03:08:30;;;;;;;11.15;9.65;;;;;;;18.12;96.33;101592.03;5055992;28;20073;-60
2023/08/18 03:10:57;;;;;;;13.38;9.52;;;;;;;18.11;96.39;101598.25;5055879;28;20021;-60
2023/08/18 03:13:23;;;;;;;11.07;9.52;;;;;;;18.12;96.60;101600.06;5055669;28;20068;-60
2023/08/18 03:15:49;;;;;;;12.05;9.52;;;;;;;18.15;96.33;101599.13;5055837;28;20029;-59
2023/08/18 03:18:14;;;;;;;11.32;9.57;;;;;;;18.13;96.18;101593.81;5055823;28;20451;-60
2023/08/18 03:20:39;;;;;;;11.05;9.52;;;;;;;18.19;96.29;101588.38;5037881;28;20029;-59
2023/08/18 03:23:05;;;;;;;12.63;9.90;;;;;;;18.17;95.87;101590.19;5055659;28;20495;-60
2023/08/18 03:25:30;;;;;;;13.98;10.63;;;;;;;18.12;96.19;101596.50;5055681;28;20033;-60
2023/08/18 03:27:55;;;;;;;13.60;10.77;;;;;;;18.09;95.75;101589.38;5055782;28;20033;-60
2023/08/18 03:30:21;;;;;;;13.82;10.65;;;;;;;18.08;96.39;101592.97;5037653;28;20505;-60
2023/08/18 03:32:48;;;;;;;16.77;11.20;;;;;;;18.07;95.81;101593.84;5055252;28;20032;-60
2023/08/18 03:35:13;;;;;;;14.25;10.60;;;;;;;18.02;96.32;101588.53;5055350;28;20103;-60
2023/08/18 03:37:39;;;;;;;13.25;10.43;;;;;;;17.98;96.20;101591.25;5055729;28;20088;-60
2023/08/18 03:40:05;;;;;;;13.52;11.18;;;;;;;17.95;96.36;101586.81;5055295;28;20398;-59
2023/08/18 03:42:30;;;;;;;14.20;10.80;;;;;;;17.92;96.60;101585.94;5055309;28;20068;-59
2023/08/18 03:44:56;;;;;;;16.73;11.48;;;;;;;17.88;96.89;101585.09;5055309;28;20151;-61
2023/08/18 03:47:21;;;;;;;13.38;10.82;;;;;;;17.85;97.18;101589.56;5055276;28;20390;-60
2023/08/18 03:49:47;;;;;;;14.77;10.88;;;;;;;17.86;96.94;101594.00;5055102;28;20028;-58
2023/08/18 03:52:12;;;;;;;13.35;10.63;;;;;;;17.86;96.78;101589.56;5055303;28;20479;-60
2023/08/18 03:54:37;;;;;;;13.80;10.90;;;;;;;17.85;97.26;101579.75;5055040;28;20114;-60
2023/08/18 03:57:03;;;;;;;18.52;11.23;;;;;;;17.85;97.32;101585.09;5055004;28;20033;-60
2023/08/18 03:59:28;;;;;;;13.32;11.00;;;;;;;17.85;97.33;101584.22;5054943;28;20032;-59
2023/08/18 04:01:54;;;;;;;13.25;11.27;;;;;;;17.82;97.46;101590.50;5054906;28;20528;-60
2023/08/18 04:04:19;;;;;;;15.40;10.75;;;;;;;17.86;97.05;101577.97;5036835;28;20033;-59
2023/08/18 04:06:44;;;;;;;15.88;11.52;;;;;;;17.86;97.16;101589.56;5055088;28;20025;-59
2023/08/18 04:09:18;;;;;;;13.93;10.85;;;;;;;17.86;97.16;101585.97;5054855;28;20055;-60
2023/08/18 04:11:44;;;;;;;14.20;11.00;;;;;;;17.87;97.14;101586.00;5055074;28;20045;-59
2023/08/18 04:14:10;;;;;;;16.58;11.27;;;;;;;17.86;97.02;101589.56;5054666;28;20520;-60
2023/08/18 04:16:36;;;;;;;15.25;10.95;;;;;;;17.88;96.95;101581.53;5054607;28;20080;-60
2023/08/18 04:19:03;;;;;;;14.40;11.25;;;;;;;17.88;97.28;101590.44;5054514;28;20135;-59
2023/08/18 04:21:29;;;;;;;14.63;11.73;;;;;;;17.86;97.02;101588.66;5054490;28;20104;-60
2023/08/18 04:23:54;;;;;;;14.43;11.38;;;;;;;17.86;97.44;101585.97;5036763;28;20113;-59
2023/08/18 04:26:20;;;;;;;18.17;11.80;;;;;;;17.82;97.30;101586.94;5054554;28;20029;-60
2023/08/18 04:28:46;;;;;;;19.80;11.23;;;;;;;17.81;97.76;101582.47;5054357;28;20020;-59
2023/08/18 04:31:12;;;;;;;15.60;10.73;;;;;;;17.80;97.67;101578.91;5054511;28;20438;-59
2023/08/18 04:33:38;;;;;;;17.30;11.30;;;;;;;17.81;97.77;101575.31;5054162;28;20032;-59
2023/08/18 04:36:04;;;;;;;17.67;11.50;;;;;;;17.84;98.07;101574.44;5054111;28;20368;-59
2023/08/18 04:38:32;;;;;;;17.63;11.73;;;;;;;17.86;97.85;101572.59;5036146;28;20033;-59
2023/08/18 04:41:02;;;;;;;18.38;11.65;;;;;;;17.85;98.04;101570.84;5053658;28;20061;-60
2023/08/18 04:43:30;;;;;;;15.98;11.52;;;;;;;17.86;98.08;101577.97;5053551;28;20103;-59
2023/08/18 04:45:55;;;;;;;16.15;11.27;;;;;;;17.85;98.13;101568.16;5053658;28;20022;-59
2023/08/18 04:48:22;;;;;;;15.07;11.32;;;;;;;17.85;98.08;101579.75;5053405;28;20025;-60
2023/08/18 04:50:48;;;;;;;16.73;11.00;;;;;;;17.92;97.85;101575.25;5035913;28;20063;-60
2023/08/18 04:53:14;;;;;;;17.85;11.07;;;;;;;17.93;97.75;101582.38;5053661;28;20037;-60
2023/08/18 04:55:40;;;;;;;16.73;11.30;;;;;;;17.89;97.97;101581.50;5053334;28;20605;-59
2023/08/18 04:58:09;;;;;;;17.90;12.02;;;;;;;17.85;98.41;101584.22;5035441;28;20033;-59
2023/08/18 05:00:34;;;;;;;14.70;11.65;;;;;;;17.83;98.60;101581.56;5053276;28;20116;-59
2023/08/18 05:03:00;;;;;;;19.42;12.57;;;;;;;17.80;99.13;101586.91;5053160;28;20449;-59
2023/08/18 05:05:25;;;;;;;18.02;12.52;;;;;;;17.80;99.34;101586.03;5019096;28;20027;-59
2023/08/18 05:07:51;;;;;;;18.85;12.98;;;;;;;17.77;99.43;101589.59;5053173;28;20482;-60
2023/08/18 05:10:16;;;;;;;16.90;11.50;;;;;;;17.77;99.50;101582.50;5052599;28;20108;-59
2023/08/18 05:12:41;;;;;;;19.00;13.13;;;;;;;17.85;99.68;101589.56;5052957;28;20351;-58
2023/08/18 05:15:07;;;;;;;20.17;13.30;;;;;;;17.84;99.20;101587.78;5052925;28;20437;-60
2023/08/18 05:17:33;;;;;;;19.85;13.50;;;;;;;17.85;99.44;101590.44;5052732;28;20041;-60
2023/08/18 05:19:59;;;;;;;20.02;13.55;;;;;;;17.86;99.35;101588.66;5052748;28;20025;-60
2023/08/18 05:22:24;;;;;;;18.08;13.10;;;;;;;17.92;99.46;101583.28;5052869;28;20108;-59
2023/08/18 05:24:50;;;;;;;20.50;13.63;;;;;;;17.93;99.62;101575.22;5052807;28;20033;-59
2023/08/18 05:27:16;;;;;;;19.98;13.57;;;;;;;17.95;99.51;101569.91;5053005;28;20122;-59
2023/08/18 05:29:41;;;;;;;20.52;13.40;;;;;;;17.93;99.24;101566.31;5052657;28;20025;-59
2023/08/18 05:32:07;;;;;;;20.20;13.80;;;;;;;17.91;99.53;101558.34;5052538;28;20032;-59
2023/08/18 05:34:32;;;;;;;20.75;13.40;;;;;;;17.88;100.00;101560.13;5052746;28;20487;-60
2023/08/18 05:36:58;;;;;;;19.42;13.50;;;;;;;17.87;100.00;101566.38;5052599;28;20494;-59
2023/08/18 05:39:23;;;;;;;20.42;13.82;;;;;;;17.88;100.00;101573.50;5052609;28;20056;-60
2023/08/18 05:41:49;;;;;;;18.77;13.30;;;;;;;17.87;99.88;101564.59;5052438;28;20125;-59
2023/08/18 05:44:14;;;;;;;24.85;13.63;;;;;;;17.89;100.00;101559.22;5034547;28;20029;-59
2023/08/18 05:46:40;;;;;;;19.67;14.15;;;;;;;17.86;100.00;101564.59;5052513;28;20035;-59
2023/08/18 05:49:07;;;;;;;20.38;13.93;;;;;;;17.87;100.00;101569.06;5034411;28;20025;-59
2023/08/18 05:51:32;;;;;;;22.90;14.45;;;;;;;17.88;100.00;101576.19;5052436;28;20412;-58
2023/08/18 05:53:57;;;;;;;20.75;14.70;;;;;;;17.89;100.00;101567.25;5034289;28;20144;-59
2023/08/18 05:56:23;;;;;;;22.90;15.82;;;;;;;17.91;100.00;101574.38;5052606;28;20033;-60
2023/08/18 05:58:48;;;;;;;22.25;14.80;;;;;;;17.97;100.00;101576.09;5052307;28;20052;-60
2023/08/18 06:01:14;;;;;;;21.15;14.43;;;;;;;17.94;100.00;101573.44;5052291;28;20048;-58
2023/08/18 06:03:40;;;;;;;20.88;14.48;;;;;;;17.94;100.00;101571.69;5052327;28;20041;-59
2023/08/18 06:06:06;;;;;;;19.90;14.93;;;;;;;17.93;100.00;101564.53;5052243;28;20478;-59
2023/08/18 06:08:31;;;;;;;20.60;14.93;;;;;;;17.92;100.00;101570.78;5052155;28;20037;-58
2023/08/18 06:10:57;;;;;;;19.35;14.98;;;;;;;17.99;100.00;101575.19;5052207;28;20029;-59
2023/08/18 06:13:22;;;;;;;19.15;14.63;;;;;;;18.06;100.00;101578.69;5052158;28;20518;-59
2023/08/18 06:15:52;;;;;;;22.25;15.23;;;;;;;18.07;100.00;101584.94;5052018;28;20546;-60
2023/08/18 06:18:18;;;;;;;23.35;15.70;;;;;;;18.09;100.00;101583.16;5052260;28;20028;-59
2023/08/18 06:20:45;;;;;;;20.40;15.43;;;;;;;18.08;100.00;101589.41;5052208;28;20041;-60
2023/08/18 06:23:10;;;;;;;20.80;14.90;;;;;;;18.07;100.00;101583.13;5054755;28;20426;-59
2023/08/18 06:25:36;;;;;;;21.75;15.13;;;;;;;18.04;100.00;101587.66;5038248;28;20107;-60
2023/08/18 06:28:01;;;;;;;21.02;14.90;;;;;;;18.00;100.00;101585.00;5056074;28;20033;-60
2023/08/18 06:30:26;;;;;;;23.25;15.65;;;;;;;17.98;100.00;101584.09;5056461;28;20207;-59
2023/08/18 06:32:52;;;;;;;19.63;15.07;;;;;;;17.96;100.00;101577.88;5055848;28;20037;-60
2023/08/18 06:35:17;;;;;;;20.10;14.75;;;;;;;17.92;100.00;101584.16;5056231;28;20090;-60
2023/08/18 06:37:44;;;;;;;20.45;15.15;;;;;;;17.94;100.00;101582.38;5038061;28;20060;-60
2023/08/18 06:40:09;;;;;;;22.15;16.23;;;;;;;17.96;100.00;101574.34;5056187;28;20022;-60
2023/08/18 06:42:35;;;;;;;21.88;16.00;;;;;;;18.01;100.00;101575.19;5056151;28;20047;-60
2023/08/18 06:45:00;;;;;;;21.45;15.52;;;;;;;18.04;100.00;101566.25;5056251;28;20394;-60
2023/08/18 06:47:26;;;;;;;21.60;16.08;;;;;;;18.06;100.00;101569.78;5055789;28;20033;-59
2023/08/18 06:49:51;;;;;;;18.38;15.05;;;;;;;18.07;100.00;101566.19;5056022;28;20025;-59
2023/08/18 06:52:17;;;;;;;22.27;15.65;;;;;;;18.10;100.00;101568.84;5055707;28;20025;-60
2023/08/18 06:54:43;;;;;;;23.98;16.58;;;;;;;18.05;100.00;101571.56;5055466;28;20032;-59
2023/08/18 06:57:09;;;;;;;21.42;16.23;;;;;;;18.11;100.00;101567.94;5038078;28;20029;-60
2023/08/18 06:59:34;;;;;;;23.25;16.45;;;;;;;18.14;100.00;101570.59;5055597;28;20052;-60
2023/08/18 07:02:00;;;;;;;22.00;16.85;;;;;;;18.18;100.00;101567.91;5055689;28;20131;-59
2023/08/18 07:04:25;;;;;;;24.50;16.95;;;;;;;18.20;100.00;101566.09;5055136;28;20025;-60
2023/08/18 07:06:50;;;;;;;26.05;17.20;;;;;;;18.23;100.00;101558.03;5055646;28;20021;-60
2023/08/18 07:09:16;;;;;;;23.75;17.23;;;;;;;18.25;100.00;101563.38;5037567;28;20055;-60
2023/08/18 07:11:41;;;;;;;22.95;17.13;;;;;;;18.35;100.00;101561.50;5037541;28;20029;-60
2023/08/18 07:14:07;;;;;;;23.30;16.55;;;;;;;18.39;100.00;101558.78;5055140;28;20033;-59
2023/08/18 07:16:32;;;;;;;23.38;17.25;;;;;;;18.39;100.00;101553.44;5055038;28;20088;-59
2023/08/18 07:18:58;;;;;;;24.17;16.75;;;;;;;18.42;100.00;101557.88;5055206;28;20035;-60
2023/08/18 07:21:23;;;;;;;25.50;16.65;;;;;;;18.41;100.00;101558.75;5055088;28;20402;-59
2023/08/18 07:23:48;;;;;;;24.75;16.45;;;;;;;18.46;100.00;101557.81;5055179;28;20035;-60
2023/08/18 07:26:16;;;;;;;21.73;16.70;;;;;;;18.52;100.00;101555.06;5055221;28;20356;-60
2023/08/18 07:28:41;;;;;;;25.05;16.40;;;;;;;18.47;100.00;101559.59;5037090;28;20052;-59
2023/08/18 07:31:07;;;;;;;22.02;16.00;;;;;;;18.52;100.00;101556.84;5054931;28;20029;-61
2023/08/18 07:33:34;;;;;;;21.63;16.98;;;;;;;18.54;100.00;101552.34;5036395;28;20467;-60
2023/08/18 07:36:00;;;;;;;22.40;16.65;;;;;;;18.53;100.00;101563.97;5054767;28;20025;-59
2023/08/18 07:38:25;;;;;;;24.08;17.05;;;;;;;18.47;100.00;101561.38;5054972;28;20025;-59
2023/08/18 07:40:52;;;;;;;22.45;16.88;;;;;;;18.48;100.00;101561.34;5055012;28;20033;-60
2023/08/18 07:43:17;;;;;;;25.30;17.25;;;;;;;18.52;100.00;101548.84;5054751;28;20029;-60
2023/08/18 07:45:43;;;;;;;24.17;16.83;;;;;;;18.56;100.00;101563.94;5054942;28;20033;-60
2023/08/18 07:48:08;;;;;;;26.23;17.55;;;;;;;18.60;100.00;101556.78;5054338;28;20143;-60
2023/08/18 07:50:34;;;;;;;23.92;17.75;;;;;;;18.64;100.00;101554.06;5053431;28;20033;-60
2023/08/18 07:52:59;;;;;;;24.52;18.63;;;;;;;18.62;100.00;101565.66;5054359;28;20441;-59
2023/08/18 07:55:25;;;;;;;24.63;17.85;;;;;;;18.64;100.00;101562.09;5054382;28;20060;-59
2023/08/18 07:57:50;;;;;;;25.10;17.88;;;;;;;18.68;100.00;101561.16;5036469;28;20035;-59
2023/08/18 08:00:17;;;;;;;25.65;17.08;;;;;;;18.79;100.00;101569.06;5054598;28;20033;-59
2023/08/18 08:02:46;;;;;;;24.77;16.98;;;;;;;18.84;100.00;101575.25;5054258;28;20029;-59
2023/08/18 08:05:13;;;;;;;26.52;17.73;;;;;;;18.94;100.00;101579.63;5036209;28;20478;-60
2023/08/18 08:07:40;;;;;;;24.85;18.80;;;;;;;18.96;98.94;101577.78;5054322;28;20387;-60
2023/08/18 08:10:06;;;;;;;21.75;16.67;;;;;;;19.07;99.27;101575.00;5054367;28;20029;-59
2023/08/18 08:12:34;;;;;;;22.48;17.83;;;;;;;19.15;99.12;101569.53;5054147;28;20029;-60
2023/08/18 08:15:01;;;;;;;23.73;15.98;;;;;;;19.19;97.85;101574.84;5054272;28;20094;-59
2023/08/18 08:17:29;;;;;;;21.70;15.02;;;;;;;19.21;97.68;101569.44;5053928;28;20514;-60
2023/08/18 08:19:56;;;;;;;19.20;15.52;;;;;;;19.21;98.01;101569.44;5054087;28;20032;-60
2023/08/18 08:22:22;;;;;;;24.08;17.77;;;;;;;19.22;97.52;101572.09;5053987;28;20098;-60
2023/08/18 08:24:48;;;;;;;26.60;18.92;;;;;;;19.24;97.38;101569.41;5035772;28;20032;-60
2023/08/18 08:27:15;;;;;;;26.35;19.10;;;;;;;19.27;97.18;101574.72;5053900;28;20033;-59
2023/08/18 08:29:41;;;;;;;26.67;19.95;;;;;;;19.27;97.41;101577.41;5053950;28;20372;-60
2023/08/18 08:32:06;;;;;;;26.17;19.67;;;;;;;19.30;97.18;101573.81;5053950;28;20062;-59
2023/08/18 08:34:32;;;;;;;26.13;19.80;;;;;;;19.34;97.96;101588.94;5053383;28;20029;-60
2023/08/18 08:36:58;;;;;;;28.02;20.27;;;;;;;19.32;97.14;101577.38;5053706;28;20474;-60
2023/08/18 08:39:23;;;;;;;27.38;19.00;;;;;;;19.34;97.36;101581.78;5053563;28;20120;-60
2023/08/18 08:41:49;;;;;;;23.23;16.83;;;;;;;19.31;97.12;101592.53;5053633;28;20120;-60
2023/08/18 08:44:14;;;;;;;20.33;15.88;;;;;;;19.30;97.09;101595.25;5035494;28;20140;-60
2023/08/18 08:46:40;;;;;;;20.25;15.10;;;;;;;19.26;97.50;101597.94;5052781;28;20060;-59
2023/08/18 08:49:07;;;;;;;19.00;15.13;;;;;;;19.24;97.43;101601.56;5053694;28;20029;-60
2023/08/18 08:51:40;;;;;;;19.73;14.95;;;;;;;19.30;97.32;101595.25;5053270;28;20032;-59
2023/08/18 08:54:07;;;;;;;23.40;15.20;;;;;;;19.28;97.82;101600.63;5053603;28;20128;-60
2023/08/18 08:56:35;;;;;;;20.80;14.52;;;;;;;19.30;98.10;101592.56;5053434;28;20113;-60
2023/08/18 08:59:00;;;;;;;21.45;15.40;;;;;;;19.31;97.50;101600.56;5053288;28;20036;-60
2023/08/18 09:01:26;;;;;;;21.27;16.25;;;;;;;19.32;96.96;101594.31;5053199;28;20343;-60
2023/08/18 09:03:52;;;;;;;20.65;15.90;;;;;;;19.40;96.65;101602.22;5053041;28;20032;-60
2023/08/18 09:06:18;;;;;;;23.00;16.20;;;;;;;19.35;96.76;101591.56;5053173;28;20064;-60
2023/08/18 09:08:43;;;;;;;19.17;15.13;;;;;;;19.43;97.51;101602.19;5053193;28;20386;-58
2023/08/18 09:11:09;;;;;;;22.73;16.48;;;;;;;19.50;96.89;101601.22;5053083;28;20032;-59
2023/08/18 09:13:35;;;;;;;23.60;16.98;;;;;;;19.55;96.44;101598.47;5052731;28;20032;-59
2023/08/18 09:16:07;;;;;;;21.75;16.50;;;;;;;19.64;96.29;101601.03;5052847;28;20387;-61
2023/08/18 09:18:33;;;;;;;22.70;16.65;;;;;;;19.69;95.46;101602.75;5052935;28;20429;-60
2023/08/18 09:21:06;;;;;;;19.98;15.38;;;;;;;19.81;95.57;101595.44;5035083;28;20112;-59
2023/08/18 09:23:32;;;;;;;21.85;15.45;;;;;;;19.87;94.96;101600.69;5052994;28;20057;-58
2023/08/18 09:25:58;;;;;;;21.17;15.82;;;;;;;19.93;94.33;101595.25;5052825;28;20415;-60
2023/08/18 09:28:24;;;;;;;20.75;15.57;;;;;;;19.93;94.16;101596.13;5052750;28;20116;-61
2023/08/18 09:30:50;;;;;;;20.35;16.20;;;;;;;19.92;94.21;101597.03;5052838;28;20548;-59
2023/08/18 09:33:16;;;;;;;23.27;16.90;;;;;;;19.88;93.95;101583.72;5052511;28;20025;-60
2023/08/18 09:35:41;;;;;;;21.75;16.77;;;;;;;19.92;94.47;101594.38;5034678;28;20032;-60
2023/08/18 09:38:12;;;;;;;21.15;15.63;;;;;;;20.00;94.32;101587.09;5052614;28;20207;-60
2023/08/18 09:40:38;;;;;;;24.77;16.83;;;;;;;20.08;94.33;101578.88;5034793;28;20132;-58
2023/08/18 09:43:03;;;;;;;23.33;17.00;;;;;;;20.21;93.68;101576.88;5052624;28;20128;-59
2023/08/18 09:45:31;;;;;;;25.00;16.98;;;;;;;20.30;93.97;101579.41;5052247;28;20033;-59
2023/08/18 09:47:56;;;;;;;22.60;16.92;;;;;;;20.42;93.40;101579.16;5052749;28;20044;-60
2023/08/18 09:50:27;;;;;;;21.95;16.25;;;;;;;20.49;93.01;101580.00;5052269;28;20479;-59
2023/08/18 09:52:57;;;;;;;21.10;17.08;;;;;;;20.50;91.60;101577.25;5052452;28;20025;-60
2023/08/18 09:55:33;;;;;;;21.58;17.10;;;;;;;20.47;91.85;101577.31;5034353;28;20040;-60
2023/08/18 09:58:07;;;;;;;20.33;15.98;;;;;;;20.58;92.76;101579.81;5052357;28;20021;-59
2023/08/18 10:00:36;;;;;;;21.75;16.65;;;;;;;20.65;91.66;101577.91;5052517;28;20032;-59
2023/08/18 10:03:04;;;;;;;22.70;16.50;;;;;;;20.69;91.40;101569.75;5052128;28;20455;-59
2023/08/18 10:05:30;;;;;;;22.35;17.48;;;;;;;20.64;91.07;101568.06;5052063;28;20032;-59
2023/08/18 10:07:56;;;;;;;22.55;17.13;;;;;;;20.73;91.09;101570.59;5034629;28;20155;-59
2023/08/18 10:10:22;;;;;;;23.38;18.17;;;;;;;20.80;90.72;101569.53;5052538;28;20104;-59
2023/08/18 10:12:50;;;;;;;22.27;17.98;;;;;;;20.88;90.43;101574.75;5052118;28;20033;-59
2023/08/18 10:15:17;;;;;;;22.98;17.90;;;;;;;21.01;90.29;101563.72;5052337;28;20022;-60
2023/08/18 10:17:42;;;;;;;22.05;17.27;;;;;;;21.11;89.71;101568.91;5051968;28;20055;-60
2023/08/18 10:20:12;;;;;;;21.92;17.55;;;;;;;21.17;89.08;101564.28;5052143;28;20033;-60
2023/08/18 10:22:37;;;;;;;22.73;17.13;;;;;;;21.32;87.98;101562.19;5052056;28;20135;-60
2023/08/18 10:25:04;;;;;;;26.88;18.70;;;;;;;21.37;88.46;101554.91;5052145;28;20025;-60
2023/08/18 10:27:29;;;;;;;23.65;17.55;;;;;;;21.42;88.12;101556.59;5051933;28;20098;-60
2023/08/18 10:30:15;;;;;;;20.40;16.83;;;;;;;21.61;88.13;101545.41;5052085;28;20029;-59
2023/08/18 10:32:41;;;;;;;22.58;18.20;;;;;;;21.59;86.39;101541.88;5041154;28;20041;-59
2023/08/18 10:35:19;;;;;;;23.05;18.35;;;;;;;21.67;86.92;101539.88;5051965;28;20048;-60
2023/08/18 10:37:51;;;;;;;21.58;17.42;;;;;;;21.62;86.37;101545.34;5052165;28;20033;-61
2023/08/18 10:40:30;;;;;;;23.55;18.70;;;;;;;21.65;85.49;101533.66;5052285;28;20025;-60
2023/08/18 10:43:12;;;;;;;21.48;18.50;;;;;;;21.73;86.19;101537.91;5051982;28;20103;-60
2023/08/18 10:45:40;;;;;;;23.73;18.85;;;;;;;21.78;85.53;101531.56;5051871;28;20494;-60
2023/08/18 10:48:09;;;;;;;23.65;18.23;;;;;;;21.87;86.23;101534.00;5051838;28;20053;-60
2023/08/18 10:50:37;;;;;;;23.10;17.33;;;;;;;22.04;86.25;101536.28;5051893;28;20072;-60
2023/08/18 10:53:07;;;;;;;24.33;18.38;;;;;;;22.13;84.73;101530.69;5051809;28;20612;-60
2023/08/18 10:55:33;;;;;;;21.42;17.35;;;;;;;22.24;83.89;101528.59;5051618;28;20516;-60
2023/08/18 10:57:58;;;;;;;28.33;17.75;;;;;;;22.33;83.72;101532.84;5051946;28;20025;-60
2023/08/18 11:00:24;;;;;;;23.92;17.88;;;;;;;22.35;83.74;101523.78;5051734;28;20420;-60
2023/08/18 11:02:51;;;;;;;21.30;17.90;;;;;;;22.47;82.19;101519.88;5033850;28;20039;-61
2023/08/18 11:05:18;;;;;;;23.17;18.13;;;;;;;22.46;82.72;101515.41;5051527;28;20037;-60
2023/08/18 11:07:44;;;;;;;22.83;17.67;;;;;;;22.63;83.03;101513.13;5052073;28;20079;-60